createdAt,value
2022-09-01T00:01:30.784Z,12.77
2022-09-01T00:06:26.051Z,13.18
2022-09-01T00:11:19.834Z,13.23
2022-09-01T00:16:17.519Z,12.27
2022-09-01T00:21:12.468Z,12.07
2022-09-01T00:26:08.020Z,12.52
2022-09-01T00:31:01.788Z,11.55
2022-09-01T00:35:56.116Z,11.52
2022-09-01T00:40:50.868Z,13.13
2022-09-01T00:45:44.691Z,13.25
2022-09-01T00:50:38.479Z,13.48
2022-09-01T00:55:32.972Z,13.77
2022-09-01T01:00:29.639Z,14.55
2022-09-01T01:05:28.067Z,12.15
2022-09-01T01:10:22.741Z,12.52
2022-09-01T01:15:20.301Z,15.40
2022-09-01T01:20:34.356Z,17.00
2022-09-01T01:25:31.703Z,15.77
2022-09-01T01:30:26.452Z,16.73
2022-09-01T01:35:22.775Z,15.52
2022-09-01T01:40:18.611Z,15.20
2022-09-01T01:45:15.702Z,14.40
2022-09-01T01:50:11.848Z,15.35
2022-09-01T01:55:13.497Z,14.50
2022-09-01T02:00:13.912Z,14.13
2022-09-01T02:05:09.140Z,13.48
2022-09-01T02:10:03.636Z,13.05
2022-09-01T02:15:00.821Z,15.18
2022-09-01T02:19:58.387Z,15.50
2022-09-01T02:24:54.484Z,16.60
2022-09-01T02:29:48.159Z,16.35
2022-09-01T02:34:41.304Z,15.40
2022-09-01T02:39:34.875Z,16.20
2022-09-01T02:44:29.931Z,17.85
2022-09-01T02:49:30.621Z,20.05
2022-09-01T02:54:25.526Z,21.75
2022-09-01T02:59:22.616Z,21.95
2022-09-01T03:04:16.497Z,20.52
2022-09-01T03:09:12.564Z,18.45
2022-09-01T03:14:07.158Z,17.38
2022-09-01T03:19:00.096Z,17.55
2022-09-01T03:23:53.683Z,16.95
2022-09-01T03:28:47.476Z,13.48
2022-09-01T03:33:42.709Z,14.65
2022-09-01T03:38:45.624Z,11.75
2022-09-01T03:43:46.014Z,12.05
2022-09-01T03:48:40.943Z,13.73
2022-09-01T03:53:38.077Z,10.88
2022-09-01T03:58:32.277Z,10.50
2022-09-01T04:03:31.086Z,11.30
2022-09-01T04:08:32.552Z,10.50
2022-09-01T04:13:30.852Z,11.85
2022-09-01T04:18:24.534Z,11.93
2022-09-01T04:23:38.420Z,10.38
2022-09-01T04:28:38.167Z,10.55
2022-09-01T04:33:40.441Z,12.23
2022-09-01T04:38:37.461Z,13.70
2022-09-01T04:43:35.317Z,13.50
2022-09-01T04:48:29.672Z,16.37
2022-09-01T04:53:28.604Z,17.85
2022-09-01T04:58:22.710Z,14.77
2022-09-01T05:03:17.882Z,15.55
2022-09-01T05:08:27.738Z,16.88
2022-09-01T05:13:28.246Z,14.43
2022-09-01T05:18:25.074Z,15.98
2022-09-01T05:23:21.332Z,15.68
2022-09-01T05:28:36.150Z,17.38
2022-09-01T05:33:30.127Z,16.80
2022-09-01T05:38:23.954Z,16.98
2022-09-01T05:43:18.026Z,18.80
2022-09-01T05:48:35.351Z,19.10
2022-09-01T05:53:31.543Z,19.15
2022-09-01T05:58:27.325Z,20.92
2022-09-01T06:03:25.902Z,20.08
2022-09-01T06:08:22.395Z,19.92
2022-09-01T06:13:16.569Z,20.55
2022-09-01T06:18:12.534Z,19.27
2022-09-01T06:23:17.939Z,21.08
2022-09-01T06:28:12.439Z,22.40
2022-09-01T06:33:12.867Z,20.83
2022-09-01T06:38:10.649Z,19.83
2022-09-01T06:43:08.855Z,18.63
2022-09-01T06:48:05.591Z,17.10
2022-09-01T06:53:35.429Z,17.52
2022-09-01T06:58:32.795Z,16.27
2022-09-01T07:03:26.997Z,15.70
2022-09-01T07:08:26.613Z,17.13
2022-09-01T07:13:32.883Z,16.65
2022-09-01T07:18:29.384Z,16.65
2022-09-01T07:23:23.916Z,18.27
2022-09-01T07:28:19.840Z,17.20
2022-09-01T07:39:48.591Z,16.45
2022-09-01T07:43:53.844Z,14.38
2022-09-01T07:54:19.482Z,7.82
2022-09-01T07:59:15.271Z,6.78
2022-09-01T08:04:23.798Z,7.15
2022-09-01T08:09:32.879Z,7.45
2022-09-01T08:14:34.957Z,7.03
2022-09-01T08:19:28.891Z,5.93
2022-09-01T08:24:32.851Z,6.45
2022-09-01T08:29:27.029Z,7.03
2022-09-01T08:34:19.947Z,6.25
2022-09-01T08:39:14.663Z,7.57
2022-09-01T08:44:26.360Z,6.55
2022-09-01T08:49:48.612Z,7.35
2022-09-01T08:55:26.648Z,5.53
2022-09-01T09:00:24.276Z,5.30
2022-09-01T09:05:51.638Z,5.75
2022-09-01T09:11:27.672Z,6.40
2022-09-01T09:16:45.138Z,6.35
2022-09-01T09:21:44.258Z,5.90
2022-09-01T09:26:45.037Z,6.63
2022-09-01T09:31:45.757Z,5.65
2022-09-01T09:36:39.952Z,6.30
2022-09-01T09:41:33.611Z,6.00
2022-09-01T09:46:39.111Z,6.50
2022-09-01T09:51:32.446Z,5.65
2022-09-01T09:56:26.356Z,5.68
2022-09-01T10:01:23.232Z,6.03
2022-09-01T10:06:42.645Z,5.50
2022-09-01T10:11:41.642Z,4.45
2022-09-01T10:16:39.448Z,3.53
2022-09-01T10:21:36.057Z,3.88
2022-09-01T10:26:41.044Z,2.53
2022-09-01T10:31:34.045Z,2.65
2022-09-01T10:36:28.469Z,2.10
2022-09-01T10:42:03.125Z,1.83
2022-09-01T10:47:16.461Z,1.88
2022-09-01T10:52:14.003Z,3.63
2022-09-01T10:57:32.250Z,1.85
2022-09-01T11:02:28.478Z,2.60
2022-09-01T11:07:58.301Z,1.60
2022-09-01T11:13:15.834Z,2.00
2022-09-01T11:18:38.996Z,1.55
2022-09-01T11:23:35.796Z,1.17
2022-09-01T11:28:32.148Z,1.53
2022-09-01T11:33:49.938Z,1.47
2022-09-01T11:38:56.503Z,1.10
2022-09-01T11:43:50.484Z,1.10
2022-09-01T11:49:25.080Z,0.95
2022-09-01T11:54:17.964Z,1.00
2022-09-01T11:59:11.047Z,1.35
2022-09-01T12:04:29.123Z,1.08
2022-09-01T12:09:22.355Z,1.20
2022-09-01T12:14:22.488Z,1.08
2022-09-01T12:19:27.648Z,0.90
2022-09-01T12:24:23.354Z,0.80
2022-09-01T12:29:18.294Z,0.93
2022-09-01T12:34:46.940Z,1.10
2022-09-01T12:39:46.422Z,0.90
2022-09-01T12:45:01.512Z,0.73
2022-09-01T12:50:29.647Z,0.93
2022-09-01T12:55:54.746Z,0.98
2022-09-01T13:01:27.712Z,1.20
2022-09-01T13:06:41.862Z,0.93
2022-09-01T13:16:50.114Z,1.08
2022-09-01T13:21:43.935Z,0.75
2022-09-01T13:26:39.103Z,1.25
2022-09-01T13:31:32.876Z,1.30
2022-09-01T13:36:46.030Z,1.23
2022-09-01T13:41:40.595Z,1.20
2022-09-01T13:46:34.520Z,0.95
2022-09-01T13:51:30.232Z,1.50
2022-09-01T13:56:25.204Z,1.45
2022-09-01T14:01:19.275Z,0.88
2022-09-01T14:06:13.625Z,1.30
2022-09-01T14:11:08.412Z,1.00
2022-09-01T14:16:03.042Z,0.75
2022-09-01T14:21:02.303Z,0.90
2022-09-01T14:25:56.050Z,1.48
2022-09-01T14:35:45.220Z,1.00
2022-09-01T14:40:38.950Z,1.27
2022-09-01T14:45:32.183Z,1.40
2022-09-01T14:50:26.243Z,1.20
2022-09-01T14:55:19.707Z,1.55
2022-09-01T15:00:14.328Z,1.45
2022-09-01T15:05:09.694Z,2.40
2022-09-01T15:10:05.310Z,1.20
2022-09-01T15:15:02.287Z,1.20
2022-09-01T15:24:48.792Z,1.33
2022-09-01T15:29:48.834Z,1.40
2022-09-01T15:34:43.444Z,1.33
2022-09-01T15:39:38.802Z,1.58
2022-09-01T15:44:32.318Z,2.15
2022-09-01T15:49:25.814Z,1.50
2022-09-01T15:54:21.336Z,1.40
2022-09-01T15:59:15.051Z,1.17
2022-09-01T16:04:17.374Z,1.42
2022-09-01T16:09:11.712Z,1.38
2022-09-01T16:14:04.797Z,0.95
2022-09-01T16:19:02.849Z,1.40
2022-09-01T16:23:57.024Z,1.17
2022-09-01T16:28:59.129Z,1.48
2022-09-01T16:33:58.553Z,1.50
2022-09-01T16:38:59.642Z,1.67
2022-09-01T16:44:28.962Z,1.48
2022-09-01T16:49:45.874Z,1.45
2022-09-01T16:54:44.996Z,1.15
2022-09-01T16:59:38.314Z,2.30
2022-09-01T17:04:48.978Z,1.33
2022-09-01T17:10:13.337Z,1.75
2022-09-01T17:15:13.784Z,1.33
2022-09-01T17:20:08.853Z,1.08
2022-09-01T17:25:13.692Z,1.10
2022-09-01T17:30:12.345Z,1.03
2022-09-01T17:35:16.525Z,1.02
2022-09-01T17:40:46.773Z,1.42
2022-09-01T17:45:58.355Z,1.40
2022-09-01T17:51:09.636Z,1.50
2022-09-01T17:56:20.341Z,2.22
2022-09-01T18:01:16.037Z,1.70
2022-09-01T18:06:37.139Z,1.73
2022-09-01T18:11:40.917Z,1.52
2022-09-01T18:16:43.860Z,1.77
2022-09-01T18:21:40.886Z,1.60
2022-09-01T18:26:39.614Z,2.03
2022-09-01T18:31:35.792Z,1.88
2022-09-01T18:36:47.897Z,1.90
2022-09-01T18:41:53.235Z,2.45
2022-09-01T18:47:02.324Z,2.55
2022-09-01T18:51:58.229Z,2.53
2022-09-01T18:56:53.650Z,2.13
2022-09-01T19:01:55.032Z,2.45
2022-09-01T19:07:19.159Z,2.35
2022-09-01T19:12:21.432Z,3.00
2022-09-01T19:17:29.592Z,2.42
2022-09-01T19:22:51.194Z,2.33
2022-09-01T19:28:17.146Z,2.55
2022-09-01T19:33:13.228Z,3.60
2022-09-01T19:38:07.510Z,2.88
2022-09-01T19:43:12.534Z,3.85
2022-09-01T19:48:34.456Z,3.65
2022-09-01T19:53:40.178Z,3.22
2022-09-01T19:58:47.040Z,2.67
2022-09-01T20:03:46.775Z,2.72
2022-09-01T20:09:01.800Z,2.80
2022-09-01T20:14:03.257Z,3.15
2022-09-01T20:19:13.752Z,3.10
2022-09-01T20:24:35.675Z,3.45
2022-09-01T20:29:41.643Z,3.92
2022-09-01T20:34:49.299Z,3.88
2022-09-01T20:40:07.585Z,3.47
2022-09-01T20:45:22.263Z,3.80
2022-09-01T20:50:16.808Z,3.10
2022-09-01T20:55:11.802Z,3.25
2022-09-01T21:00:26.393Z,3.35
2022-09-01T21:05:25.592Z,3.38
2022-09-01T21:10:50.807Z,3.58
2022-09-01T21:16:12.658Z,3.70
2022-09-01T21:21:58.581Z,4.03
2022-09-01T21:26:55.493Z,3.40
2022-09-01T21:31:50.004Z,3.92
2022-09-01T21:36:44.339Z,3.55
2022-09-01T21:41:57.299Z,5.15
2022-09-01T21:47:30.835Z,5.18
2022-09-01T21:52:24.499Z,4.60
2022-09-01T21:57:18.068Z,4.88
2022-09-01T22:02:12.740Z,5.68
2022-09-01T22:07:06.263Z,6.13
2022-09-01T22:11:59.636Z,6.15
2022-09-01T22:16:53.919Z,6.82
2022-09-01T22:21:48.344Z,7.13
2022-09-01T22:26:42.261Z,7.22
2022-09-01T22:31:38.902Z,8.88
2022-09-01T22:36:38.509Z,7.93
2022-09-01T22:41:32.790Z,9.77
2022-09-01T22:46:26.408Z,11.48
2022-09-01T22:51:19.863Z,12.07
2022-09-01T22:56:25.016Z,13.50
2022-09-01T23:01:21.770Z,12.50
2022-09-01T23:06:26.857Z,10.52
2022-09-01T23:11:22.326Z,13.32
2022-09-01T23:16:17.281Z,12.88
2022-09-01T23:21:11.830Z,15.48
2022-09-01T23:26:06.936Z,13.48
2022-09-01T23:31:01.048Z,15.38
2022-09-01T23:35:56.660Z,13.35
2022-09-01T23:40:53.560Z,15.02
2022-09-01T23:45:56.309Z,13.43
2022-09-01T23:50:51.356Z,14.40
2022-09-01T23:55:46.747Z,16.02
